Weather reports worldwide

Advertisment
Feldberg/Schwarzwald, Germany (10908): temperature & dewpoint: 11.10.2018 06:00:00 - 17.10.2018 06:00:00 (CEST)Feldberg/Schwarzwald, Germany (10908): temperature 5cm & temperature -5cm: 11.10.2018 06:00:00 - 17.10.2018 06:00:00 (CEST)Feldberg/Schwarzwald, Germany (10908): temperature -20cm & temperature -100cm: 11.10.2018 06:00:00 - 17.10.2018 06:00:00 (CEST)Feldberg/Schwarzwald, Germany (10908): wind speed & gusts: 11.10.2018 06:00:00 - 17.10.2018 06:00:00 (CEST)Feldberg/Schwarzwald, Germany (10908): wind direction: 11.10.2018 06:00:00 - 17.10.2018 06:00:00 (CEST)Feldberg/Schwarzwald, Germany (10908): visibility: 11.10.2018 06:00:00 - 17.10.2018 06:00:00 (CEST)Feldberg/Schwarzwald, Germany (10908): sunshine duration: 11.10.2018 06:00:00 - 17.10.2018 06:00:00 (CEST)Feldberg/Schwarzwald, Germany (10908): precipitation: 11.10.2018 06:00:00 - 17.10.2018 06:00:00 (CEST)
Date & Time tt [°C] td [°C] tt 5cm [°C] tt -5cm [°C] tt -20cm [°C] tt -100cm [°C] ff [km/h] ff [kn] fx [km/h] fx [kn] dd vv [km] sd [min] rr [mm]
17.10.2018 06:00:00 10,9 1,4 7,1 5,9 9,1 9,4 23 13 25 13 ENE 39 0 0,0
17.10.2018 05:00:00 10,9 1,9 6,3 6,0 9,3 9,4 20 11 21 12 E 37 0 0,0
17.10.2018 04:00:00 11,0 1,4 6,7 6,2 9,5 9,4 21 11 23 12 E 40 0 0,0
17.10.2018 03:00:00 10,9 0,8 6,0 6,5 9,6 9,4 18 10 22 12 E 46 0 0,0
17.10.2018 02:00:00 11,0 0,4 6,2 6,9 9,8 9,4 18 10 24 13 E 56 0 0,0
17.10.2018 01:00:00 11,2 -0,2 7,1 7,3 9,9 9,4 19 10 24 13 E 62 0 0,0
17.10.2018 00:00:00 11,0 1,0 6,7 7,8 10,1 9,4 19 11 27 14 E 46 0 0,0
16.10.2018 23:00:00 11,2 1,3 7,3 8,3 10,2 9,4 21 11 29 15 E 54 0 0,0
16.10.2018 22:00:00 10,8 1,1 7,8 8,9 10,2 9,4 23 13 30 16 ENE 51 0 0,0
16.10.2018 21:00:00 11,5 1,2 8,2 9,6 10,3 9,4 24 13 28 15 ENE 52 0 0,0
16.10.2018 20:00:00 11,4 1,4 8,9 10,5 10,2 9,4 18 10 27 15 ENE 54 0 0,0
16.10.2018 19:00:00 11,9 0,2 9,7 11,5 10,0 9,4 20 11 31 17 ENE 55 0 0,0
16.10.2018 18:00:00 12,2 0,2 10,2 12,9 9,7 9,4 21 11 34 19 E 49 35 0,0
16.10.2018 17:00:00 12,7 1,2 15,2 13,9 9,4 9,4 16 9 31 17 ENE 65 60 0,0
16.10.2018 16:00:00 12,8 -0,2 13,9 14,9 9,0 9,4 22 12 37 20 E 70 50 0,0
16.10.2018 15:00:00 13,0 0,9 19,4 14,2 8,7 9,4 20 11 35 19 E 52 60 0,0
16.10.2018 14:00:00 13,0 1,5 19,3 12,9 8,4 9,4 19 10 28 15 E 49 60 0,0
16.10.2018 13:00:00 12,8 1,8 18,8 11,4 8,3 9,4 19 11 28 15 E 59 60 0,0
16.10.2018 12:00:00 12,7 0,9 16,5 9,5 8,2 9,4 16 9 27 15 E 50 60 0,0
16.10.2018 11:00:00 12,7 0,3 15,6 7,7 8,3 9,4 19 10 26 14 ESE 44 60 0,0
16.10.2018 10:00:00 11,8 0,5 11,4 6,0 8,4 9,4 22 12 24 13 SE 60 60 0,0
16.10.2018 09:00:00 11,9 -0,7 9,5 5,1 8,5 9,4 19 10 22 12 E 56 45 0,0
16.10.2018 08:00:00 11,5 -1,3 6,9 4,8 8,7 9,4 20 11 24 13 E 59 0 0,0
16.10.2018 07:00:00 11,5 -1,3 6,1 4,8 8,9 9,4 19 11 21 11 ENE 62 0 0,0
16.10.2018 06:00:00 11,5 -1,1 6,1 4,6 9,1 9,4 16 9 16 9 ENE 51 0 0,0
16.10.2018 05:00:00 11,5 -0,2 4,1 4,9 9,3 9,4 11 6 12 6 NNE 67 0 0,0
16.10.2018 04:00:00 11,6 -0,2 6,0 5,3 9,6 9,4 8 4 9 5 N 56 0 0,0
16.10.2018 03:00:00 11,8 -0,4 5,3 5,7 9,8 9,4 7 4 11 6 NNW 56 0 0,0
16.10.2018 02:00:00 11,6 -0,1 7,1 6,2 10,0 9,4 11 6 17 9 S 49 0 0,0
16.10.2018 01:00:00 11,8 -0,2 5,7 6,8 10,2 9,4 15 8 18 10 SE 69 0 0,0
16.10.2018 00:00:00 11,9 -0,3 6,1 7,4 10,3 9,4 17 9 22 12 ESE 52 0 0,0
15.10.2018 23:00:00 11,8 -0,1 7,2 8,0 10,5 9,4 19 11 24 13 SE 60 0 0,0
15.10.2018 22:00:00 11,8 0,2 7,3 8,7 10,6 9,4 20 11 27 14 SE 59 0 0,0
15.10.2018 21:00:00 11,8 0,9 7,5 9,5 10,6 9,4 22 12 25 13 SE 56 0 0,0
15.10.2018 20:00:00 12,1 -0,1 7,9 10,6 10,6 9,4 23 12 24 13 ESE 53 0 0,0
15.10.2018 19:00:00 12,3 -0,3 8,0 12,1 10,4 9,4 18 10 20 11 ESE 50 19 0,0
15.10.2018 18:00:00 13,1 -0,4 12,7 13,8 10,1 9,4 12 7 22 12 ESE 68 60 0,0
15.10.2018 17:00:00 13,4 0,1 15,7 14,8 9,7 9,4 16 8 26 14 E 68 60 0,0
15.10.2018 16:00:00 13,3 0,0 17,4 15,0 9,4 9,4 18 10 29 16 E 50 60 0,0
15.10.2018 15:00:00 13,2 0,6 19,2 14,6 9,1 9,4 16 9 26 14 ESE 44 60 0,0
15.10.2018 14:00:00 12,9 0,9 19,6 13,4 8,8 9,4 12 7 22 12 E 54 60 0,0
15.10.2018 13:00:00 12,6 1,9 18,6 11,6 8,7 9,4 13 7 26 14 E 58 60 0,0
15.10.2018 12:00:00 11,6 2,2 15,8 9,6 8,7 9,4 22 12 41 22 NE 52 60 0,0
15.10.2018 11:00:00 10,9 3,5 13,9 7,9 8,8 9,4 24 13 42 23 NE 52 60 0,0
15.10.2018 10:00:00 10,9 3,3 11,8 6,4 8,9 9,4 26 14 35 19 ENE 59 60 0,0
15.10.2018 09:00:00 10,7 4,1 8,4 5,5 9,1 9,4 24 13 27 15 NE 43 47 0,0
15.10.2018 08:00:00 10,1 2,5 5,7 5,3 9,3 9,4 14 7 16 9 ENE 52 0 0,0
15.10.2018 07:00:00 10,6 3,4 3,3 5,7 9,5 9,4 5 3 12 7 N 50 0 0,0
15.10.2018 06:00:00 11,1 3,3 6,0 6,1 9,6 9,4 12 6 16 9 W 56 0 0,0
15.10.2018 05:00:00 11,6 1,9 7,2 6,4 9,8 9,4 16 9 23 12 W 52 0 0,0
15.10.2018 04:00:00 11,8 2,3 7,5 6,5 10,0 9,4 17 9 23 12 WSW 56 0 0,0
15.10.2018 03:00:00 12,3 -2,0 6,5 6,7 10,2 9,4 13 7 17 9 SSW 55 0 0,0
15.10.2018 02:00:00 11,9 -2,1 7,5 7,3 10,4 9,4 18 10 24 13 S 61 0 0,0
15.10.2018 01:00:00 12,3 -2,0 8,7 7,8 10,6 9,4 21 11 31 17 S 71 0 0,0
15.10.2018 00:00:00 12,6 -0,6 8,9 8,2 10,8 9,4 21 11 26 14 SSE 63 0 0,0
14.10.2018 23:00:00 12,2 0,5 8,6 8,7 10,9 9,4 23 13 27 15 SSE 54 0 0,0
14.10.2018 22:00:00 12,5 -0,9 9,2 9,4 11,0 9,4 19 10 32 18 S 57 0 0,0
14.10.2018 21:00:00 13,2 -2,5 9,8 10,2 11,1 9,4 27 15 34 19 SSE 62 0 0,0
14.10.2018 20:00:00 13,5 -4,6 9,8 11,4 11,0 9,4 23 12 30 16 SSE 75 0 0,0
14.10.2018 19:00:00 13,8 -2,8 10,0 13,1 10,8 9,4 20 11 23 12 SE 73 22 0,0
14.10.2018 18:00:00 14,6 1,7 14,2 14,8 10,5 9,4 15 8 21 12 S 58 60 0,0
14.10.2018 17:00:00 15,5 1,9 16,9 15,8 10,1 9,4 13 7 21 11 SSW 69 60 0,0
14.10.2018 16:00:00 15,3 1,0 18,0 16,0 9,8 9,4 16 9 26 14 SSW 46 60 0,0
14.10.2018 15:00:00 15,3 0,8 19,7 15,5 9,4 9,4 15 8 31 17 SSW 52 60 0,0
14.10.2018 14:00:00 14,9 0,2 19,3 14,2 9,2 9,4 18 10 30 16 S 54 60 0,0
14.10.2018 13:00:00 14,3 0,3 18,5 12,5 9,0 9,4 18 10 35 19 S 70 60 0,0
14.10.2018 12:00:00 13,6 -0,7 16,7 10,6 9,0 9,4 21 12 37 20 SSE 75 60 0,0
14.10.2018 11:00:00 13,2 -1,6 15,6 8,7 9,1 9,4 26 14 34 19 SSE 47 60 0,0
14.10.2018 10:00:00 13,0 2,4 13,5 6,9 9,2 9,4 22 12 29 16 SSE 57 60 0,0
14.10.2018 09:00:00 11,9 5,6 10,3 6,0 9,4 9,4 16 9 23 12 SSE 62 48 0,0
14.10.2018 08:00:00 12,4 2,9 7,7 5,9 9,6 9,4 21 11 23 12 SE 75 0 0,0
14.10.2018 07:00:00 13,3 1,8 7,1 5,9 9,8 9,4 18 10 20 11 E 66 0 0,0
14.10.2018 06:00:00 13,2 2,1 6,3 6,0 10,1 9,4 15 8 17 9 ESE 75 0 0,0
14.10.2018 05:00:00 13,1 1,2 4,9 6,4 10,3 9,4 5 3 8 5 ESE 75 0 0,0
14.10.2018 04:00:00 13,1 2,4 7,0 6,8 10,5 9,4 8 4 10 6 S 72 0 0,0
14.10.2018 03:00:00 13,2 2,4 6,7 7,2 10,8 9,4 10 6 11 6 S 75 0 0,0
14.10.2018 02:00:00 13,4 2,5 5,7 7,8 11,0 9,4 10 5 11 6 SSW 75 0 0,0
14.10.2018 01:00:00 13,2 3,5 7,7 8,4 11,2 9,4 9 5 10 6 S 72 0 0,0
14.10.2018 00:00:00 13,1 4,0 8,6 8,9 11,4 9,4 9 5 13 7 S 75 0 0,0
13.10.2018 23:00:00 12,9 5,3 6,6 9,7 11,5 9,4 9 5 17 9 SSE 59 0 0,0
13.10.2018 22:00:00 12,6 5,4 7,9 10,5 11,6 9,4 16 8 18 10 SE 73 0 0,0
13.10.2018 21:00:00 13,8 2,6 8,5 11,6 11,6 9,4 16 8 18 10 SE 75 0 0,0
13.10.2018 20:00:00 13,3 5,9 8,6 13,1 11,5 9,4 16 9 18 10 ESE 59 0 0,0
13.10.2018 19:00:00 13,3 8,3 10,6 15,0 11,2 9,4 11 6 14 8 S 49 24 0,0
13.10.2018 18:00:00 15,1 8,6 15,8 16,7 10,9 9,4 9 5 12 7 S 55 60 0,0
13.10.2018 17:00:00 15,8 9,6 18,5 17,6 10,4 9,4 5 3 13 7 N 49 59 0,0
13.10.2018 16:00:00 16,4 9,5 19,0 17,9 10,0 9,4 3 2 14 8 NNE 44 60 0,0
13.10.2018 15:00:00 16,2 9,2 19,9 17,1 9,6 9,4 9 5 20 11 NW 52 60 0,0
13.10.2018 14:00:00 16,3 6,7 22,3 15,5 9,3 9,4 11 6 20 11 ESE 58 59 0,0
13.10.2018 13:00:00 15,7 6,0 21,9 13,6 9,1 9,4 10 6 18 10 E 60 60 0,0
13.10.2018 12:00:00 15,0 4,5 19,9 11,6 9,0 9,4 13 7 19 10 E 63 60 0,0
13.10.2018 11:00:00 14,4 6,2 17,8 9,3 9,1 9,4 14 7 18 10 E 66 60 0,0
13.10.2018 10:00:00 13,9 6,1 15,1 7,0 9,3 9,4 11 6 13 7 E 67 60 0,0
13.10.2018 09:00:00 14,1 2,3 10,0 6,1 9,5 9,4 11 6 15 8 E 73 50 0,0
13.10.2018 08:00:00 13,8 2,2 7,0 5,9 9,7 9,4 15 8 17 9 E 75 0 0,0
13.10.2018 07:00:00 13,7 1,0 4,8 6,3 9,8 9,4 7 4 10 5 ENE 75 0 0,0
13.10.2018 06:00:00 14,0 1,1 3,9 6,8 10,0 9,4 5 3 7 4 ENE 75 0 0,0
13.10.2018 05:00:00 13,8 2,0 7,0 7,4 10,2 9,4 6 4 14 7 SSW 66 0 0,0
13.10.2018 04:00:00 13,7 3,1 8,8 7,9 10,4 9,4 14 7 19 10 S 67 0 0,0
13.10.2018 03:00:00 13,6 4,4 9,6 8,2 10,5 9,4 18 10 24 13 SSE 75 0 0,0
13.10.2018 02:00:00 13,6 4,3 9,7 8,6 10,7 9,4 20 11 23 12 SSE 68 0 0,0
13.10.2018 01:00:00 13,1 5,8 9,2 9,1 10,8 9,4 20 11 33 18 SE 60 0 0,0
13.10.2018 00:00:00 12,7 7,0 9,5 9,4 11,0 9,3 30 16 34 18 ESE 48 0 0,0
12.10.2018 23:00:00 12,9 6,6 9,8 9,8 11,2 9,4 29 15 32 17 SE 58 0 0,0
12.10.2018 22:00:00 12,9 6,2 9,6 10,2 11,3 9,4 26 14 29 16 SE 58 0 0,0
12.10.2018 21:00:00 13,5 3,6 9,0 11,0 11,3 9,3 19 10 23 12 ESE 66 0 0,0
12.10.2018 20:00:00 13,6 3,6 9,3 12,3 11,2 9,3 16 9 27 14 SE 75 0 0,0
12.10.2018 19:00:00 13,4 4,6 10,0 14,0 11,0 9,3 22 12 24 13 ESE 75 26 0,0
12.10.2018 18:00:00 14,3 5,7 14,5 15,6 10,7 9,4 14 8 22 12 SSE 74 58 0,0
12.10.2018 17:00:00 14,8 6,1 16,1 16,9 10,3 9,4 14 8 26 14 SSE 75 60 0,0
12.10.2018 16:00:00 15,6 6,0 19,2 17,1 9,9 9,4 14 8 27 15 SSW 75 60 0,0
12.10.2018 15:00:00 15,3 5,5 20,6 16,7 9,5 9,4 15 8 26 14 SE 57 60 0,0
12.10.2018 14:00:00 15,0 6,7 19,8 15,4 9,2 9,3 12 7 29 16 SSE 72 60 0,0
12.10.2018 13:00:00 14,0 6,5 17,8 13,5 9,0 9,3 16 9 32 18 S 68 60 0,0
12.10.2018 12:00:00 13,7 6,3 17,3 11,8 8,9 9,3 24 13 37 20 S 75 60 0,0
12.10.2018 11:00:00 12,7 6,4 15,3 9,9 8,9 9,3 29 15 36 20 S 69 60 0,0
12.10.2018 10:00:00 12,0 6,5 13,3 8,2 9,0 9,3 25 13 33 18 S 59 60 0,0
12.10.2018 09:00:00 11,2 6,8 9,8 7,7 9,1 9,3 27 14 36 20 S 55 50 0,0
12.10.2018 08:00:00 11,3 6,4 9,1 7,7 9,1 9,3 31 17 44 24 SSW 63 0 0,0
12.10.2018 07:00:00 11,5 5,5 9,0 7,8 9,2 9,3 34 19 43 23 SW 59 0 0,0
12.10.2018 06:00:00 11,2 6,5 8,6 8,1 9,2 9,3 27 15 46 25 WSW 68 0 0,0
12.10.2018 05:00:00 11,3 6,6 9,5 8,2 9,3 9,3 34 18 50 27 SW 65 0 0,0
12.10.2018 04:00:00 11,4 6,8 9,8 8,2 9,3 9,3 33 18 52 28 SW 62 0 0,0
12.10.2018 03:00:00 11,7 6,7 9,8 8,2 9,4 9,3 37 20 50 27 SW 56 0 0,0
12.10.2018 02:00:00 12,0 7,2 9,6 8,2 9,5 9,3 33 18 41 22 SW 69 0 0,0
12.10.2018 01:00:00 12,4 6,9 10,2 8,1 9,6 9,3 35 19 45 24 WSW 68 0 0,0
12.10.2018 00:00:00 12,1 3,4 9,6 8,2 9,7 9,3 32 17 39 21 SSW 75 0 0,0
11.10.2018 23:00:00 12,8 2,8 10,3 8,2 9,8 9,3 26 14 29 16 SSW 65 0 0,0
11.10.2018 22:00:00 13,2 2,4 9,1 8,4 9,8 9,3 19 10 21 11 S 75 0 0,0
11.10.2018 21:00:00 13,0 2,7 9,6 9,1 9,9 9,3 19 10 29 16 S 75 0 0,0
11.10.2018 20:00:00 12,5 3,2 10,2 9,9 9,8 9,3 26 14 37 20 S 75 0 0,0
11.10.2018 19:00:00 12,4 3,2 10,4 11,0 9,7 9,3 29 16 41 22 SSE 75 28 0,0
11.10.2018 18:00:00 13,2 3,7 13,3 12,1 9,5 9,3 23 12 29 16 S 75 44 0,0
11.10.2018 17:00:00 13,3 4,0 15,0 12,4 9,3 9,3 16 9 27 14 S 73 2 0,0
11.10.2018 16:00:00 13,3 3,2 14,6 11,5 9,2 9,3 20 11 35 19 S 58 0 0,0
11.10.2018 15:00:00 13,3 2,3 13,7 10,9 9,0 9,3 27 15 33 18 SSE 75 0 0,0
11.10.2018 14:00:00 12,6 4,1 13,4 10,7 8,9 9,3 13 7 17 9 SSE 75 0 0,0
11.10.2018 13:00:00 12,4 4,6 12,6 10,2 8,8 9,3 9 5 12 7 S 50 0 0,0
11.10.2018 12:00:00 12,3 4,1 12,7 9,4 8,8 9,3 10 5 13 7 S 57 0 0,0
11.10.2018 11:00:00 11,2 4,7 11,7 8,6 8,9 9,3 5 3 10 5 SE 37 0 0,0
11.10.2018 10:00:00 10,7 6,5 11,2 7,3 9,0 9,3 5 3 10 5 N 32 32 0,0
11.10.2018 09:00:00 11,7 3,0 10,2 5,9 9,1 9,3 6 3 11 6 N 48 52 0,0
11.10.2018 08:00:00 11,8 1,5 7,1 5,8 9,3 9,3 10 6 15 8 SSW 59 0 0,0
11.10.2018 07:00:00 12,9 1,0 7,3 6,2 9,5 9,3 11 6 19 10 S 71 0 0,0
11.10.2018 06:00:00 13,1 1,0 9,3 6,4 9,7 9,3 15 8 19 11 S 72 0 0,0

tt = temperature
td = dewpoint
tt 5cm = temperature 5cm
tt -5cm = temperature -5cm
tt -20cm = temperature -20cm
tt -100cm = temperature -100cm
ff = wind speed
fx = gusts
dd = wind direction
vv = visibility
sd = sunshine duration
rr = precipitation

Next stations